sensor_id;sensor_type;location;lat;lon;timestamp;P1;durP1;ratioP1;P2;durP2;ratioP2
50779;SDS011;36748;37.428;-121.972;2023-11-21T00:02:10;3.00;;;0.52;;
50779;SDS011;36748;37.428;-121.972;2023-11-21T00:04:36;3.72;;;0.63;;
50779;SDS011;36748;37.428;-121.972;2023-11-21T00:07:03;1.88;;;0.50;;
50779;SDS011;36748;37.428;-121.972;2023-11-21T00:09:31;3.70;;;0.65;;
50779;SDS011;36748;37.428;-121.972;2023-11-21T00:11:58;2.10;;;0.60;;
50779;SDS011;36748;37.428;-121.972;2023-11-21T00:14:24;3.00;;;0.43;;
50779;SDS011;36748;37.428;-121.972;2023-11-21T00:16:51;3.67;;;0.60;;
50779;SDS011;36748;37.428;-121.972;2023-11-21T00:19:17;4.32;;;0.60;;
50779;SDS011;36748;37.428;-121.972;2023-11-21T00:21:43;1.25;;;0.40;;
50779;SDS011;36748;37.428;-121.972;2023-11-21T00:24:11;1.65;;;0.50;;
50779;SDS011;36748;37.428;-121.972;2023-11-21T00:26:39;2.05;;;0.70;;
50779;SDS011;36748;37.428;-121.972;2023-11-21T00:29:06;1.83;;;0.50;;
50779;SDS011;36748;37.428;-121.972;2023-11-21T00:31:35;1.35;;;0.47;;
50779;SDS011;36748;37.428;-121.972;2023-11-21T00:34:02;1.25;;;0.57;;
50779;SDS011;36748;37.428;-121.972;2023-11-21T00:36:30;2.55;;;0.60;;
50779;SDS011;36748;37.428;-121.972;2023-11-21T00:38:57;1.23;;;0.50;;
50779;SDS011;36748;37.428;-121.972;2023-11-21T00:41:24;0.65;;;0.47;;
50779;SDS011;36748;37.428;-121.972;2023-11-21T00:43:54;1.30;;;0.50;;
50779;SDS011;36748;37.428;-121.972;2023-11-21T00:46:20;2.33;;;0.60;;
50779;SDS011;36748;37.428;-121.972;2023-11-21T00:48:47;1.30;;;0.50;;
50779;SDS011;36748;37.428;-121.972;2023-11-21T00:51:13;2.10;;;0.60;;
50779;SDS011;36748;37.428;-121.972;2023-11-21T00:53:40;1.92;;;0.50;;
50779;SDS011;36748;37.428;-121.972;2023-11-21T00:56:06;0.70;;;0.45;;
50779;SDS011;36748;37.428;-121.972;2023-11-21T00:58:33;1.25;;;0.40;;
50779;SDS011;36748;37.428;-121.972;2023-11-21T01:01:00;3.15;;;0.50;;
50779;SDS011;36748;37.428;-121.972;2023-11-21T01:03:28;1.85;;;0.43;;
50779;SDS011;36748;37.428;-121.972;2023-11-21T01:05:55;0.90;;;0.30;;
50779;SDS011;36748;37.428;-121.972;2023-11-21T01:08:21;1.52;;;0.60;;
50779;SDS011;36748;37.428;-121.972;2023-11-21T01:10:49;0.93;;;0.43;;
50779;SDS011;36748;37.428;-121.972;2023-11-21T01:13:15;1.85;;;0.47;;
50779;SDS011;36748;37.428;-121.972;2023-11-21T01:15:42;2.30;;;0.50;;
50779;SDS011;36748;37.428;-121.972;2023-11-21T01:18:08;1.27;;;0.60;;
50779;SDS011;36748;37.428;-121.972;2023-11-21T01:20:34;1.08;;;0.40;;
50779;SDS011;36748;37.428;-121.972;2023-11-21T01:23:00;1.65;;;0.60;;
50779;SDS011;36748;37.428;-121.972;2023-11-21T01:25:26;0.90;;;0.50;;
50779;SDS011;36748;37.428;-121.972;2023-11-21T01:27:53;0.90;;;0.32;;
50779;SDS011;36748;37.428;-121.972;2023-11-21T01:30:19;0.88;;;0.30;;
50779;SDS011;36748;37.428;-121.972;2023-11-21T01:32:46;1.13;;;0.40;;
50779;SDS011;36748;37.428;-121.972;2023-11-21T01:35:12;4.28;;;0.93;;
50779;SDS011;36748;37.428;-121.972;2023-11-21T01:37:39;3.05;;;0.70;;
50779;SDS011;36748;37.428;-121.972;2023-11-21T01:40:05;2.65;;;0.50;;
50779;SDS011;36748;37.428;-121.972;2023-11-21T01:42:36;2.05;;;0.60;;
50779;SDS011;36748;37.428;-121.972;2023-11-21T01:45:03;7.20;;;0.85;;
50779;SDS011;36748;37.428;-121.972;2023-11-21T01:47:31;1.05;;;0.68;;
50779;SDS011;36748;37.428;-121.972;2023-11-21T01:50:00;7.20;;;0.55;;
50779;SDS011;36748;37.428;-121.972;2023-11-21T01:52:28;1.15;;;0.60;;
50779;SDS011;36748;37.428;-121.972;2023-11-21T01:55:00;2.67;;;0.52;;
50779;SDS011;36748;37.428;-121.972;2023-11-21T01:57:28;2.03;;;0.40;;
50779;SDS011;36748;37.428;-121.972;2023-11-21T01:59:56;0.98;;;0.47;;
50779;SDS011;36748;37.428;-121.972;2023-11-21T02:02:26;3.33;;;0.60;;
50779;SDS011;36748;37.428;-121.972;2023-11-21T02:05:02;1.20;;;0.60;;
50779;SDS011;36748;37.428;-121.972;2023-11-21T02:07:31;2.05;;;0.60;;
50779;SDS011;36748;37.428;-121.972;2023-11-21T02:09:57;0.75;;;0.38;;
50779;SDS011;36748;37.428;-121.972;2023-11-21T02:12:25;1.10;;;0.52;;
50779;SDS011;36748;37.428;-121.972;2023-11-21T02:14:52;3.45;;;0.70;;
50779;SDS011;36748;37.428;-121.972;2023-11-21T02:17:19;0.73;;;0.30;;
50779;SDS011;36748;37.428;-121.972;2023-11-21T02:19:47;3.20;;;0.45;;
50779;SDS011;36748;37.428;-121.972;2023-11-21T02:22:17;2.70;;;0.50;;
50779;SDS011;36748;37.428;-121.972;2023-11-21T02:24:45;1.27;;;0.52;;
50779;SDS011;36748;37.428;-121.972;2023-11-21T02:27:13;0.95;;;0.40;;
50779;SDS011;36748;37.428;-121.972;2023-11-21T02:29:50;3.90;;;0.57;;
50779;SDS011;36748;37.428;-121.972;2023-11-21T02:32:18;2.17;;;0.82;;
50779;SDS011;36748;37.428;-121.972;2023-11-21T02:34:48;3.63;;;0.70;;
50779;SDS011;36748;37.428;-121.972;2023-11-21T02:37:15;4.45;;;0.65;;
50779;SDS011;36748;37.428;-121.972;2023-11-21T02:39:42;2.58;;;0.40;;
50779;SDS011;36748;37.428;-121.972;2023-11-21T02:42:09;1.30;;;0.47;;
50779;SDS011;36748;37.428;-121.972;2023-11-21T02:44:37;2.88;;;0.50;;
50779;SDS011;36748;37.428;-121.972;2023-11-21T02:47:04;9.85;;;1.17;;
50779;SDS011;36748;37.428;-121.972;2023-11-21T02:49:31;0.60;;;0.45;;
50779;SDS011;36748;37.428;-121.972;2023-11-21T02:52:00;4.68;;;0.93;;
50779;SDS011;36748;37.428;-121.972;2023-11-21T02:54:27;5.53;;;0.50;;
50779;SDS011;36748;37.428;-121.972;2023-11-21T02:56:55;7.18;;;1.02;;
50779;SDS011;36748;37.428;-121.972;2023-11-21T02:59:21;7.13;;;1.00;;
50779;SDS011;36748;37.428;-121.972;2023-11-21T03:01:48;10.57;;;1.00;;
50779;SDS011;36748;37.428;-121.972;2023-11-21T03:04:15;12.85;;;1.45;;
50779;SDS011;36748;37.428;-121.972;2023-11-21T03:06:44;4.60;;;1.15;;
50779;SDS011;36748;37.428;-121.972;2023-11-21T03:09:11;15.95;;;1.70;;
50779;SDS011;36748;37.428;-121.972;2023-11-21T03:11:38;8.77;;;1.08;;
50779;SDS011;36748;37.428;-121.972;2023-11-21T03:14:05;7.90;;;1.17;;
50779;SDS011;36748;37.428;-121.972;2023-11-21T03:16:34;12.10;;;1.55;;
50779;SDS011;36748;37.428;-121.972;2023-11-21T03:19:04;8.40;;;1.33;;
50779;SDS011;36748;37.428;-121.972;2023-11-21T03:21:31;4.85;;;1.15;;
50779;SDS011;36748;37.428;-121.972;2023-11-21T03:23:59;5.35;;;0.98;;
50779;SDS011;36748;37.428;-121.972;2023-11-21T03:26:26;6.55;;;0.95;;
50779;SDS011;36748;37.428;-121.972;2023-11-21T03:28:53;9.43;;;0.88;;
50779;SDS011;36748;37.428;-121.972;2023-11-21T03:31:19;8.10;;;1.15;;
50779;SDS011;36748;37.428;-121.972;2023-11-21T03:33:46;5.07;;;1.33;;
50779;SDS011;36748;37.428;-121.972;2023-11-21T03:36:12;9.65;;;1.40;;
50779;SDS011;36748;37.428;-121.972;2023-11-21T03:38:40;4.95;;;1.42;;
50779;SDS011;36748;37.428;-121.972;2023-11-21T03:41:07;7.18;;;1.38;;
50779;SDS011;36748;37.428;-121.972;2023-11-21T03:43:36;5.68;;;1.20;;
50779;SDS011;36748;37.428;-121.972;2023-11-21T03:46:05;9.18;;;1.13;;
50779;SDS011;36748;37.428;-121.972;2023-11-21T03:48:32;5.85;;;0.95;;
50779;SDS011;36748;37.428;-121.972;2023-11-21T03:50:58;6.63;;;1.38;;
50779;SDS011;36748;37.428;-121.972;2023-11-21T03:53:24;5.85;;;0.82;;
50779;SDS011;36748;37.428;-121.972;2023-11-21T03:55:51;6.03;;;1.20;;
50779;SDS011;36748;37.428;-121.972;2023-11-21T03:58:17;3.80;;;0.90;;
50779;SDS011;36748;37.428;-121.972;2023-11-21T04:00:43;2.97;;;0.95;;
50779;SDS011;36748;37.428;-121.972;2023-11-21T04:03:09;6.93;;;0.90;;
50779;SDS011;36748;37.428;-121.972;2023-11-21T04:05:35;6.88;;;1.10;;
50779;SDS011;36748;37.428;-121.972;2023-11-21T04:08:02;5.45;;;1.55;;
50779;SDS011;36748;37.428;-121.972;2023-11-21T04:10:28;6.32;;;0.85;;
50779;SDS011;36748;37.428;-121.972;2023-11-21T04:12:54;5.60;;;0.90;;
50779;SDS011;36748;37.428;-121.972;2023-11-21T04:15:20;5.43;;;1.20;;
50779;SDS011;36748;37.428;-121.972;2023-11-21T04:17:46;3.63;;;0.80;;
50779;SDS011;36748;37.428;-121.972;2023-11-21T04:20:12;5.32;;;0.80;;
50779;SDS011;36748;37.428;-121.972;2023-11-21T04:22:40;2.97;;;0.70;;
50779;SDS011;36748;37.428;-121.972;2023-11-21T04:25:08;4.47;;;0.88;;
50779;SDS011;36748;37.428;-121.972;2023-11-21T04:27:42;7.60;;;1.13;;
50779;SDS011;36748;37.428;-121.972;2023-11-21T04:30:09;4.82;;;0.68;;
50779;SDS011;36748;37.428;-121.972;2023-11-21T04:32:36;3.33;;;0.65;;
50779;SDS011;36748;37.428;-121.972;2023-11-21T04:35:04;11.35;;;1.20;;
50779;SDS011;36748;37.428;-121.972;2023-11-21T04:37:31;6.53;;;0.90;;
50779;SDS011;36748;37.428;-121.972;2023-11-21T04:39:57;7.43;;;0.82;;
50779;SDS011;36748;37.428;-121.972;2023-11-21T04:42:24;5.80;;;1.30;;
50779;SDS011;36748;37.428;-121.972;2023-11-21T04:44:50;4.47;;;0.80;;
50779;SDS011;36748;37.428;-121.972;2023-11-21T04:47:18;3.45;;;0.88;;
50779;SDS011;36748;37.428;-121.972;2023-11-21T04:49:45;3.33;;;0.80;;
50779;SDS011;36748;37.428;-121.972;2023-11-21T04:52:14;3.42;;;1.00;;
50779;SDS011;36748;37.428;-121.972;2023-11-21T04:54:41;3.03;;;0.68;;
50779;SDS011;36748;37.428;-121.972;2023-11-21T04:57:08;4.28;;;0.95;;
50779;SDS011;36748;37.428;-121.972;2023-11-21T04:59:34;3.03;;;0.88;;
50779;SDS011;36748;37.428;-121.972;2023-11-21T05:02:01;3.40;;;0.82;;
50779;SDS011;36748;37.428;-121.972;2023-11-21T05:04:28;3.35;;;0.80;;
50779;SDS011;36748;37.428;-121.972;2023-11-21T05:06:54;3.60;;;1.13;;
50779;SDS011;36748;37.428;-121.972;2023-11-21T05:09:20;5.10;;;0.52;;
50779;SDS011;36748;37.428;-121.972;2023-11-21T05:11:47;4.30;;;1.00;;
50779;SDS011;36748;37.428;-121.972;2023-11-21T05:14:13;3.05;;;1.02;;
50779;SDS011;36748;37.428;-121.972;2023-11-21T05:16:40;3.38;;;0.80;;
50779;SDS011;36748;37.428;-121.972;2023-11-21T05:19:06;6.13;;;0.90;;
50779;SDS011;36748;37.428;-121.972;2023-11-21T05:21:32;3.78;;;1.10;;
50779;SDS011;36748;37.428;-121.972;2023-11-21T05:23:58;4.15;;;0.93;;
50779;SDS011;36748;37.428;-121.972;2023-11-21T05:26:25;4.85;;;0.73;;
50779;SDS011;36748;37.428;-121.972;2023-11-21T05:28:51;3.63;;;0.80;;
50779;SDS011;36748;37.428;-121.972;2023-11-21T05:31:17;3.17;;;0.70;;
50779;SDS011;36748;37.428;-121.972;2023-11-21T05:33:44;6.38;;;1.17;;
50779;SDS011;36748;37.428;-121.972;2023-11-21T05:36:11;3.90;;;0.88;;
50779;SDS011;36748;37.428;-121.972;2023-11-21T05:38:37;2.72;;;0.80;;
50779;SDS011;36748;37.428;-121.972;2023-11-21T05:41:03;5.25;;;0.85;;
50779;SDS011;36748;37.428;-121.972;2023-11-21T05:43:30;3.30;;;1.33;;
50779;SDS011;36748;37.428;-121.972;2023-11-21T05:46:16;3.42;;;0.70;;
50779;SDS011;36748;37.428;-121.972;2023-11-21T05:48:43;4.43;;;0.80;;
50779;SDS011;36748;37.428;-121.972;2023-11-21T05:51:10;2.13;;;0.73;;
50779;SDS011;36748;37.428;-121.972;2023-11-21T05:53:38;2.63;;;1.27;;
50779;SDS011;36748;37.428;-121.972;2023-11-21T05:56:04;3.28;;;0.90;;
50779;SDS011;36748;37.428;-121.972;2023-11-21T05:58:31;2.08;;;0.80;;
50779;SDS011;36748;37.428;-121.972;2023-11-21T06:00:57;1.95;;;0.70;;
50779;SDS011;36748;37.428;-121.972;2023-11-21T06:03:23;2.42;;;0.80;;
50779;SDS011;36748;37.428;-121.972;2023-11-21T06:05:50;2.03;;;0.80;;
50779;SDS011;36748;37.428;-121.972;2023-11-21T06:08:16;1.95;;;0.80;;
50779;SDS011;36748;37.428;-121.972;2023-11-21T06:10:43;2.75;;;0.88;;
50779;SDS011;36748;37.428;-121.972;2023-11-21T06:13:14;2.65;;;0.65;;
50779;SDS011;36748;37.428;-121.972;2023-11-21T06:15:40;4.05;;;0.88;;
50779;SDS011;36748;37.428;-121.972;2023-11-21T06:18:07;3.13;;;0.70;;
50779;SDS011;36748;37.428;-121.972;2023-11-21T06:20:35;2.30;;;0.98;;
50779;SDS011;36748;37.428;-121.972;2023-11-21T06:23:02;3.35;;;0.90;;
50779;SDS011;36748;37.428;-121.972;2023-11-21T06:25:29;3.05;;;0.90;;
50779;SDS011;36748;37.428;-121.972;2023-11-21T06:27:58;1.92;;;1.00;;
50779;SDS011;36748;37.428;-121.972;2023-11-21T06:30:24;1.75;;;1.08;;
50779;SDS011;36748;37.428;-121.972;2023-11-21T06:32:50;3.28;;;1.02;;
50779;SDS011;36748;37.428;-121.972;2023-11-21T06:35:17;3.13;;;1.25;;
50779;SDS011;36748;37.428;-121.972;2023-11-21T06:37:44;2.60;;;0.88;;
50779;SDS011;36748;37.428;-121.972;2023-11-21T06:40:14;2.70;;;0.90;;
50779;SDS011;36748;37.428;-121.972;2023-11-21T06:42:40;2.42;;;1.05;;
50779;SDS011;36748;37.428;-121.972;2023-11-21T06:45:07;1.38;;;0.80;;
50779;SDS011;36748;37.428;-121.972;2023-11-21T06:47:36;2.50;;;0.90;;
50779;SDS011;36748;37.428;-121.972;2023-11-21T06:50:03;2.10;;;0.90;;
50779;SDS011;36748;37.428;-121.972;2023-11-21T06:52:29;1.83;;;0.95;;
50779;SDS011;36748;37.428;-121.972;2023-11-21T06:54:55;1.92;;;1.27;;
50779;SDS011;36748;37.428;-121.972;2023-11-21T06:57:25;3.40;;;0.82;;
50779;SDS011;36748;37.428;-121.972;2023-11-21T06:59:51;3.30;;;0.80;;
50779;SDS011;36748;37.428;-121.972;2023-11-21T07:02:17;2.55;;;0.75;;
50779;SDS011;36748;37.428;-121.972;2023-11-21T07:04:47;1.17;;;0.80;;
50779;SDS011;36748;37.428;-121.972;2023-11-21T07:07:13;2.92;;;0.90;;
50779;SDS011;36748;37.428;-121.972;2023-11-21T07:09:39;1.55;;;0.77;;
50779;SDS011;36748;37.428;-121.972;2023-11-21T07:12:05;2.88;;;0.80;;
50779;SDS011;36748;37.428;-121.972;2023-11-21T07:14:35;1.17;;;0.60;;
50779;SDS011;36748;37.428;-121.972;2023-11-21T07:17:04;1.52;;;0.85;;
50779;SDS011;36748;37.428;-121.972;2023-11-21T07:19:31;1.92;;;0.80;;
50779;SDS011;36748;37.428;-121.972;2023-11-21T07:21:58;4.13;;;1.00;;
50779;SDS011;36748;37.428;-121.972;2023-11-21T07:24:24;1.30;;;0.77;;
50779;SDS011;36748;37.428;-121.972;2023-11-21T07:26:50;1.50;;;0.95;;
50779;SDS011;36748;37.428;-121.972;2023-11-21T07:29:16;2.17;;;0.95;;
50779;SDS011;36748;37.428;-121.972;2023-11-21T07:31:43;1.33;;;1.00;;
50779;SDS011;36748;37.428;-121.972;2023-11-21T07:34:09;1.05;;;0.80;;
50779;SDS011;36748;37.428;-121.972;2023-11-21T07:36:37;2.15;;;0.90;;
50779;SDS011;36748;37.428;-121.972;2023-11-21T07:39:03;2.05;;;0.80;;
50779;SDS011;36748;37.428;-121.972;2023-11-21T07:41:31;0.75;;;0.50;;
50779;SDS011;36748;37.428;-121.972;2023-11-21T07:43:58;1.38;;;0.82;;
50779;SDS011;36748;37.428;-121.972;2023-11-21T07:46:25;1.15;;;0.70;;
50779;SDS011;36748;37.428;-121.972;2023-11-21T07:48:52;1.80;;;0.80;;
50779;SDS011;36748;37.428;-121.972;2023-11-21T07:51:18;2.17;;;0.93;;
50779;SDS011;36748;37.428;-121.972;2023-11-21T07:53:44;1.83;;;0.98;;
50779;SDS011;36748;37.428;-121.972;2023-11-21T07:56:11;1.45;;;0.70;;
50779;SDS011;36748;37.428;-121.972;2023-11-21T07:58:38;2.20;;;0.65;;
50779;SDS011;36748;37.428;-121.972;2023-11-21T08:01:04;1.65;;;0.77;;
50779;SDS011;36748;37.428;-121.972;2023-11-21T08:03:30;3.72;;;1.30;;
50779;SDS011;36748;37.428;-121.972;2023-11-21T08:05:57;3.10;;;0.90;;
50779;SDS011;36748;37.428;-121.972;2023-11-21T08:08:24;1.27;;;0.75;;
50779;SDS011;36748;37.428;-121.972;2023-11-21T08:10:50;1.88;;;0.82;;
50779;SDS011;36748;37.428;-121.972;2023-11-21T08:13:23;2.65;;;1.00;;
50779;SDS011;36748;37.428;-121.972;2023-11-21T08:15:55;2.33;;;0.85;;
50779;SDS011;36748;37.428;-121.972;2023-11-21T08:18:43;2.03;;;0.90;;
50779;SDS011;36748;37.428;-121.972;2023-11-21T08:21:09;1.15;;;0.98;;
50779;SDS011;36748;37.428;-121.972;2023-11-21T08:23:37;2.05;;;0.85;;
50779;SDS011;36748;37.428;-121.972;2023-11-21T08:26:04;1.50;;;0.77;;
50779;SDS011;36748;37.428;-121.972;2023-11-21T08:28:30;2.53;;;0.70;;
50779;SDS011;36748;37.428;-121.972;2023-11-21T08:30:57;2.15;;;0.90;;
50779;SDS011;36748;37.428;-121.972;2023-11-21T08:33:23;1.65;;;1.05;;
50779;SDS011;36748;37.428;-121.972;2023-11-21T08:35:49;1.88;;;1.00;;
50779;SDS011;36748;37.428;-121.972;2023-11-21T08:38:15;0.98;;;0.70;;
50779;SDS011;36748;37.428;-121.972;2023-11-21T08:40:43;2.70;;;1.02;;
50779;SDS011;36748;37.428;-121.972;2023-11-21T08:43:09;1.60;;;0.95;;
50779;SDS011;36748;37.428;-121.972;2023-11-21T08:45:37;1.30;;;0.90;;
50779;SDS011;36748;37.428;-121.972;2023-11-21T08:48:03;4.10;;;0.90;;
50779;SDS011;36748;37.428;-121.972;2023-11-21T08:50:30;1.10;;;0.95;;
50779;SDS011;36748;37.428;-121.972;2023-11-21T08:52:56;2.10;;;0.80;;
50779;SDS011;36748;37.428;-121.972;2023-11-21T08:55:23;2.05;;;1.00;;
50779;SDS011;36748;37.428;-121.972;2023-11-21T08:57:49;1.55;;;0.93;;
50779;SDS011;36748;37.428;-121.972;2023-11-21T09:00:16;1.50;;;0.68;;
50779;SDS011;36748;37.428;-121.972;2023-11-21T09:02:43;1.25;;;0.73;;
50779;SDS011;36748;37.428;-121.972;2023-11-21T09:05:13;2.58;;;0.90;;
50779;SDS011;36748;37.428;-121.972;2023-11-21T09:07:40;1.30;;;1.00;;
50779;SDS011;36748;37.428;-121.972;2023-11-21T09:10:06;0.93;;;0.63;;
50779;SDS011;36748;37.428;-121.972;2023-11-21T09:12:34;1.33;;;1.00;;
50779;SDS011;36748;37.428;-121.972;2023-11-21T09:15:03;1.10;;;0.93;;
50779;SDS011;36748;37.428;-121.972;2023-11-21T09:17:30;1.63;;;0.93;;
50779;SDS011;36748;37.428;-121.972;2023-11-21T09:19:57;1.45;;;1.00;;
50779;SDS011;36748;37.428;-121.972;2023-11-21T09:22:23;1.98;;;0.90;;
50779;SDS011;36748;37.428;-121.972;2023-11-21T09:24:50;0.88;;;0.70;;
50779;SDS011;36748;37.428;-121.972;2023-11-21T09:27:17;1.20;;;0.77;;
50779;SDS011;36748;37.428;-121.972;2023-11-21T09:29:44;1.30;;;0.75;;
50779;SDS011;36748;37.428;-121.972;2023-11-21T09:32:11;1.60;;;0.93;;
50779;SDS011;36748;37.428;-121.972;2023-11-21T09:34:39;1.70;;;0.90;;
50779;SDS011;36748;37.428;-121.972;2023-11-21T09:37:07;1.25;;;0.80;;
50779;SDS011;36748;37.428;-121.972;2023-11-21T09:39:33;1.17;;;0.82;;
50779;SDS011;36748;37.428;-121.972;2023-11-21T09:42:48;2.08;;;1.13;;
50779;SDS011;36748;37.428;-121.972;2023-11-21T09:45:13;1.67;;;0.95;;
50779;SDS011;36748;37.428;-121.972;2023-11-21T09:47:46;1.13;;;0.80;;
50779;SDS011;36748;37.428;-121.972;2023-11-21T09:50:13;1.88;;;1.10;;
50779;SDS011;36748;37.428;-121.972;2023-11-21T09:52:55;1.73;;;0.90;;
50779;SDS011;36748;37.428;-121.972;2023-11-21T09:55:23;1.75;;;1.10;;
50779;SDS011;36748;37.428;-121.972;2023-11-21T09:57:58;3.10;;;0.95;;
50779;SDS011;36748;37.428;-121.972;2023-11-21T10:00:26;1.05;;;0.70;;
50779;SDS011;36748;37.428;-121.972;2023-11-21T10:02:52;1.45;;;0.82;;
50779;SDS011;36748;37.428;-121.972;2023-11-21T10:05:19;1.65;;;1.00;;
50779;SDS011;36748;37.428;-121.972;2023-11-21T10:07:46;1.27;;;0.90;;
50779;SDS011;36748;37.428;-121.972;2023-11-21T10:10:14;2.30;;;1.25;;
50779;SDS011;36748;37.428;-121.972;2023-11-21T10:12:42;1.80;;;0.70;;
50779;SDS011;36748;37.428;-121.972;2023-11-21T10:15:09;2.63;;;1.05;;
50779;SDS011;36748;37.428;-121.972;2023-11-21T10:17:38;2.15;;;0.90;;
50779;SDS011;36748;37.428;-121.972;2023-11-21T10:20:08;1.17;;;0.98;;
50779;SDS011;36748;37.428;-121.972;2023-11-21T10:22:39;1.08;;;0.98;;
50779;SDS011;36748;37.428;-121.972;2023-11-21T10:25:07;1.20;;;1.10;;
50779;SDS011;36748;37.428;-121.972;2023-11-21T10:27:40;1.50;;;0.80;;
50779;SDS011;36748;37.428;-121.972;2023-11-21T10:30:10;1.83;;;1.10;;
50779;SDS011;36748;37.428;-121.972;2023-11-21T10:32:44;1.67;;;0.88;;
50779;SDS011;36748;37.428;-121.972;2023-11-21T10:35:10;1.55;;;0.93;;
50779;SDS011;36748;37.428;-121.972;2023-11-21T10:37:39;1.20;;;0.95;;
50779;SDS011;36748;37.428;-121.972;2023-11-21T10:40:09;1.55;;;1.00;;
50779;SDS011;36748;37.428;-121.972;2023-11-21T10:42:39;3.10;;;1.17;;
50779;SDS011;36748;37.428;-121.972;2023-11-21T10:45:06;1.05;;;0.95;;
50779;SDS011;36748;37.428;-121.972;2023-11-21T10:47:41;1.80;;;1.02;;
50779;SDS011;36748;37.428;-121.972;2023-11-21T10:50:09;1.52;;;1.13;;
50779;SDS011;36748;37.428;-121.972;2023-11-21T10:52:39;1.45;;;0.80;;
50779;SDS011;36748;37.428;-121.972;2023-11-21T10:55:18;1.70;;;1.20;;
50779;SDS011;36748;37.428;-121.972;2023-11-21T10:57:53;2.28;;;1.10;;
50779;SDS011;36748;37.428;-121.972;2023-11-21T11:00:20;1.33;;;1.00;;
50779;SDS011;36748;37.428;-121.972;2023-11-21T11:02:48;0.80;;;0.80;;
50779;SDS011;36748;37.428;-121.972;2023-11-21T11:05:18;3.08;;;1.00;;
50779;SDS011;36748;37.428;-121.972;2023-11-21T11:08:07;1.77;;;0.95;;
50779;SDS011;36748;37.428;-121.972;2023-11-21T11:10:34;1.05;;;0.90;;
50779;SDS011;36748;37.428;-121.972;2023-11-21T11:13:00;1.42;;;0.98;;
50779;SDS011;36748;37.428;-121.972;2023-11-21T11:15:26;1.95;;;0.75;;
50779;SDS011;36748;37.428;-121.972;2023-11-21T11:17:54;1.42;;;1.20;;
50779;SDS011;36748;37.428;-121.972;2023-11-21T11:20:25;0.93;;;0.82;;
50779;SDS011;36748;37.428;-121.972;2023-11-21T11:37:15;1.58;;;1.00;;
50779;SDS011;36748;37.428;-121.972;2023-11-21T11:39:41;1.20;;;1.00;;
50779;SDS011;36748;37.428;-121.972;2023-11-21T11:42:14;1.10;;;0.95;;
50779;SDS011;36748;37.428;-121.972;2023-11-21T11:47:21;1.25;;;0.95;;
50779;SDS011;36748;37.428;-121.972;2023-11-21T11:50:00;2.00;;;1.00;;
50779;SDS011;36748;37.428;-121.972;2023-11-21T11:52:45;2.83;;;1.10;;
50779;SDS011;36748;37.428;-121.972;2023-11-21T11:55:13;1.58;;;1.10;;
50779;SDS011;36748;37.428;-121.972;2023-11-21T11:57:43;1.08;;;0.90;;
50779;SDS011;36748;37.428;-121.972;2023-11-21T12:02:47;1.33;;;0.95;;
50779;SDS011;36748;37.428;-121.972;2023-11-21T12:05:19;0.77;;;0.77;;
50779;SDS011;36748;37.428;-121.972;2023-11-21T12:07:50;1.55;;;1.30;;
50779;SDS011;36748;37.428;-121.972;2023-11-21T12:10:21;1.20;;;1.08;;
50779;SDS011;36748;37.428;-121.972;2023-11-21T12:12:53;0.98;;;0.88;;
50779;SDS011;36748;37.428;-121.972;2023-11-21T12:15:21;1.02;;;0.85;;
50779;SDS011;36748;37.428;-121.972;2023-11-21T12:17:48;1.92;;;1.08;;
50779;SDS011;36748;37.428;-121.972;2023-11-21T12:20:15;0.70;;;0.70;;
50779;SDS011;36748;37.428;-121.972;2023-11-21T12:22:44;1.48;;;1.00;;
50779;SDS011;36748;37.428;-121.972;2023-11-21T12:25:17;1.02;;;0.90;;
50779;SDS011;36748;37.428;-121.972;2023-11-21T12:27:51;0.80;;;0.80;;
50779;SDS011;36748;37.428;-121.972;2023-11-21T12:30:19;0.80;;;0.80;;
50779;SDS011;36748;37.428;-121.972;2023-11-21T12:32:54;1.80;;;1.05;;
50779;SDS011;36748;37.428;-121.972;2023-11-21T12:35:24;0.95;;;0.70;;
50779;SDS011;36748;37.428;-121.972;2023-11-21T12:37:52;1.17;;;1.08;;
50779;SDS011;36748;37.428;-121.972;2023-11-21T12:40:19;1.52;;;1.00;;
50779;SDS011;36748;37.428;-121.972;2023-11-21T12:42:48;0.80;;;0.80;;
50779;SDS011;36748;37.428;-121.972;2023-11-21T12:47:43;1.58;;;1.00;;
50779;SDS011;36748;37.428;-121.972;2023-11-21T12:50:37;1.30;;;0.90;;
50779;SDS011;36748;37.428;-121.972;2023-11-21T12:53:03;2.08;;;1.10;;
50779;SDS011;36748;37.428;-121.972;2023-11-21T12:55:43;1.90;;;1.00;;
50779;SDS011;36748;37.428;-121.972;2023-11-21T12:58:15;1.15;;;0.90;;
50779;SDS011;36748;37.428;-121.972;2023-11-21T13:00:45;0.93;;;0.80;;
50779;SDS011;36748;37.428;-121.972;2023-11-21T13:03:13;0.85;;;0.70;;
50779;SDS011;36748;37.428;-121.972;2023-11-21T13:05:48;0.80;;;0.63;;
50779;SDS011;36748;37.428;-121.972;2023-11-21T13:08:16;0.68;;;0.65;;
50779;SDS011;36748;37.428;-121.972;2023-11-21T13:10:45;1.33;;;0.70;;
50779;SDS011;36748;37.428;-121.972;2023-11-21T13:13:14;0.98;;;0.85;;
50779;SDS011;36748;37.428;-121.972;2023-11-21T13:18:26;0.95;;;0.90;;
50779;SDS011;36748;37.428;-121.972;2023-11-21T13:20:56;1.23;;;0.80;;
50779;SDS011;36748;37.428;-121.972;2023-11-21T13:23:24;1.23;;;1.00;;
50779;SDS011;36748;37.428;-121.972;2023-11-21T13:25:51;1.00;;;0.75;;
50779;SDS011;36748;37.428;-121.972;2023-11-21T13:28:20;0.75;;;0.60;;
50779;SDS011;36748;37.428;-121.972;2023-11-21T13:30:49;0.68;;;0.60;;
50779;SDS011;36748;37.428;-121.972;2023-11-21T13:33:17;0.73;;;0.70;;
50779;SDS011;36748;37.428;-121.972;2023-11-21T13:35:47;1.58;;;0.70;;
50779;SDS011;36748;37.428;-121.972;2023-11-21T13:38:16;1.15;;;0.70;;
50779;SDS011;36748;37.428;-121.972;2023-11-21T13:40:48;1.05;;;0.90;;
50779;SDS011;36748;37.428;-121.972;2023-11-21T13:43:16;1.02;;;0.93;;
50779;SDS011;36748;37.428;-121.972;2023-11-21T13:45:47;1.48;;;0.98;;
50779;SDS011;36748;37.428;-121.972;2023-11-21T13:48:23;2.00;;;0.90;;
50779;SDS011;36748;37.428;-121.972;2023-11-21T13:51:14;2.00;;;1.13;;
50779;SDS011;36748;37.428;-121.972;2023-11-21T13:53:46;3.10;;;1.33;;
50779;SDS011;36748;37.428;-121.972;2023-11-21T13:56:16;2.97;;;1.00;;
50779;SDS011;36748;37.428;-121.972;2023-11-21T13:58:47;3.25;;;1.50;;
50779;SDS011;36748;37.428;-121.972;2023-11-21T14:01:17;2.13;;;1.30;;
50779;SDS011;36748;37.428;-121.972;2023-11-21T14:03:50;1.70;;;1.33;;
50779;SDS011;36748;37.428;-121.972;2023-11-21T14:06:28;5.40;;;1.40;;
50779;SDS011;36748;37.428;-121.972;2023-11-21T14:09:00;5.10;;;1.20;;
50779;SDS011;36748;37.428;-121.972;2023-11-21T14:11:31;3.03;;;1.20;;
50779;SDS011;36748;37.428;-121.972;2023-11-21T14:13:57;2.50;;;0.95;;
50779;SDS011;36748;37.428;-121.972;2023-11-21T14:16:24;2.15;;;1.17;;
50779;SDS011;36748;37.428;-121.972;2023-11-21T14:18:51;2.67;;;1.20;;
50779;SDS011;36748;37.428;-121.972;2023-11-21T14:21:41;3.22;;;1.40;;
50779;SDS011;36748;37.428;-121.972;2023-11-21T14:24:13;2.60;;;1.40;;
50779;SDS011;36748;37.428;-121.972;2023-11-21T14:26:43;4.15;;;1.55;;
50779;SDS011;36748;37.428;-121.972;2023-11-21T14:29:14;4.90;;;1.55;;
50779;SDS011;36748;37.428;-121.972;2023-11-21T14:31:45;2.83;;;1.10;;
50779;SDS011;36748;37.428;-121.972;2023-11-21T14:34:12;2.65;;;1.33;;
50779;SDS011;36748;37.428;-121.972;2023-11-21T14:36:40;3.40;;;1.52;;
50779;SDS011;36748;37.428;-121.972;2023-11-21T14:39:06;4.35;;;1.65;;
50779;SDS011;36748;37.428;-121.972;2023-11-21T14:41:45;4.18;;;1.50;;